Manor, PA

3:24 PM EDT on September 01, 2014 (GMT -0400)
Sheridan Terrace | Change Station
CLOSE
Current Station
Personal Weather Station
Location: N. Huntingdon, PA
Elevation: 1017 ft
Nearby Weather Stations

Elev 1017 ft 40.34 °N, 79.70 °W | Updated 5 seconds ago

Mostly Cloudy
Mostly Cloudy
88.2 °F
Feels Like 93 °F
N
3.6
Wind Variable Wind from SW
Gusts 4.7 mph

Today
High -- | Low -- °F
--% Chance of Precip.
Yesterday
High -- | Low -- °F
Precip. -- in
6:46 AM 7:50 PM
Waxing Crescent, 43% visible
Pressure 29.97 in
Visibility 9.0 miles
Clouds Scattered Clouds 2800 ft
Mostly Cloudy 3700 ft
Mostly Cloudy 4400 ft
Heat Index 93 °F
Dew Point 70 °F
Humidity 55%
Rainfall 0.00 in
Snow Depth Not available.
UV 4 out of 12
Pollen 9.20 out of 12
Air Quality Not available.
Flu Activity Not available.
METAR KAGC 011853Z 23013G17KT 9SM SCT028 BKN037 BKN044 27/19 A2999 RMK AO2 SLP148 T02720194

More Conditions Fewer Conditions

Pressure 29.97 in
Visibility 9.0 miles
Clouds Scattered Clouds 2800 ft
Mostly Cloudy 3700 ft
Mostly Cloudy 4400 ft
Heat Index 93 °F
Dew Point 70 °F
Humidity 55%
Rainfall 0.00 in
Snow Depth Not available.
UV 4 out of 12
Pollen 9.20 out of 12
Air Quality Not available.
Flu Activity Not available.
METAR KAGC 011853Z 23013G17KT 9SM SCT028 BKN037 BKN044 27/19 A2999 RMK AO2 SLP148 T02720194

More Conditions Fewer Conditions

10-Day Weather Forecast

Almanac

Astronomy

Sep. 01, 2014 Rise Set
Actual Time 6:46 AM EDT 7:50 PM EDT
Civil Twilight 6:18 AM EDT 8:18 PM EDT
Nautical Twilight 5:44 AM EDT 8:51 PM EDT
Astronomical Twilight 5:09 AM EDT 9:26 PM EDT
Moon 1:31 PM EDT 11:49 PM EDT
Length of Visible Light 14h 00m
Length of Day
13h 04m
Tomorrow will be 2m 33s shorter.
Waxing Crescent, 43% of the Moon is Illuminated
Today
Waxing Crescent
Sep 2
First Quarter
Sep 8
Full
Sep 15
Last Quarter
Sep 24
New

Today's Extremes

State Highs State Lows

Community

WunderPhotos

Upload Photos

1,749,378 photos uploaded!

WunderBlogs® & News

Nearby

Snow Depth

Station Depth Elevation
No new snow has been reported.

Earthquake Activity

City Distance Mag. Time & Date
No recent earthquake activity has been reported nearby.
Minimum magnitude displayed is 2.5.

Coastal Water Temperatures

Place Temperature
No Stations Reporting

Nearby Weather Stations